sensor_id;sensor_type;location;lat;lon;timestamp;temperature;humidity
52889;DHT22;41413;52.770;6.892;2023-08-07T00:02:00;15.60;99.90
52889;DHT22;41413;52.770;6.892;2023-08-07T00:04:27;15.50;99.90
52889;DHT22;41413;52.770;6.892;2023-08-07T00:06:54;15.50;99.90
52889;DHT22;41413;52.770;6.892;2023-08-07T00:09:21;15.60;99.90
52889;DHT22;41413;52.770;6.892;2023-08-07T00:11:47;15.60;99.90
52889;DHT22;41413;52.770;6.892;2023-08-07T00:14:14;15.60;99.90
52889;DHT22;41413;52.770;6.892;2023-08-07T00:16:42;15.60;99.90
52889;DHT22;41413;52.770;6.892;2023-08-07T00:19:08;15.60;99.90
52889;DHT22;41413;52.770;6.892;2023-08-07T00:21:35;15.60;99.90
52889;DHT22;41413;52.770;6.892;2023-08-07T00:24:02;15.60;99.90
52889;DHT22;41413;52.770;6.892;2023-08-07T00:26:29;15.60;99.90
52889;DHT22;41413;52.770;6.892;2023-08-07T00:28:58;15.60;99.90
52889;DHT22;41413;52.770;6.892;2023-08-07T00:31:25;15.60;99.90
52889;DHT22;41413;52.770;6.892;2023-08-07T00:33:52;15.60;99.90
52889;DHT22;41413;52.770;6.892;2023-08-07T00:36:20;15.70;99.90
52889;DHT22;41413;52.770;6.892;2023-08-07T00:38:47;15.60;99.90
52889;DHT22;41413;52.770;6.892;2023-08-07T00:41:19;15.60;99.90
52889;DHT22;41413;52.770;6.892;2023-08-07T00:43:46;15.60;99.90
52889;DHT22;41413;52.770;6.892;2023-08-07T00:46:14;15.60;99.90
52889;DHT22;41413;52.770;6.892;2023-08-07T00:48:41;15.50;99.90
52889;DHT22;41413;52.770;6.892;2023-08-07T00:51:08;15.60;99.90
52889;DHT22;41413;52.770;6.892;2023-08-07T00:53:38;15.60;99.90
52889;DHT22;41413;52.770;6.892;2023-08-07T00:56:06;15.60;99.90
52889;DHT22;41413;52.770;6.892;2023-08-07T00:58:33;15.70;99.90
52889;DHT22;41413;52.770;6.892;2023-08-07T01:01:01;15.60;99.90
52889;DHT22;41413;52.770;6.892;2023-08-07T01:03:28;15.60;99.90
52889;DHT22;41413;52.770;6.892;2023-08-07T01:05:55;15.60;99.90
52889;DHT22;41413;52.770;6.892;2023-08-07T01:08:25;15.60;99.90
52889;DHT22;41413;52.770;6.892;2023-08-07T01:11:10;15.60;99.90
52889;DHT22;41413;52.770;6.892;2023-08-07T01:14:10;15.60;99.90
52889;DHT22;41413;52.770;6.892;2023-08-07T01:17:01;15.60;99.90
52889;DHT22;41413;52.770;6.892;2023-08-07T01:19:31;15.60;99.90
52889;DHT22;41413;52.770;6.892;2023-08-07T01:24:38;15.60;99.90
52889;DHT22;41413;52.770;6.892;2023-08-07T01:29:54;15.50;99.90
52889;DHT22;41413;52.770;6.892;2023-08-07T01:35:16;15.50;99.90
52889;DHT22;41413;52.770;6.892;2023-08-07T01:37:45;15.50;99.90
52889;DHT22;41413;52.770;6.892;2023-08-07T01:40:16;15.40;99.90
52889;DHT22;41413;52.770;6.892;2023-08-07T01:42:43;15.40;99.90
52889;DHT22;41413;52.770;6.892;2023-08-07T01:45:10;15.40;99.90
52889;DHT22;41413;52.770;6.892;2023-08-07T01:47:37;15.40;99.90
52889;DHT22;41413;52.770;6.892;2023-08-07T01:50:04;15.30;99.90
52889;DHT22;41413;52.770;6.892;2023-08-07T01:52:31;15.30;99.90
52889;DHT22;41413;52.770;6.892;2023-08-07T01:54:58;15.30;99.90
52889;DHT22;41413;52.770;6.892;2023-08-07T01:57:24;15.30;99.90
52889;DHT22;41413;52.770;6.892;2023-08-07T01:59:52;15.30;99.90
52889;DHT22;41413;52.770;6.892;2023-08-07T02:02:19;15.30;99.90
52889;DHT22;41413;52.770;6.892;2023-08-07T02:04:46;15.30;99.90
52889;DHT22;41413;52.770;6.892;2023-08-07T02:07:13;15.30;99.90
52889;DHT22;41413;52.770;6.892;2023-08-07T02:09:40;15.30;99.90
52889;DHT22;41413;52.770;6.892;2023-08-07T02:12:07;15.30;99.90
52889;DHT22;41413;52.770;6.892;2023-08-07T02:14:34;15.20;99.90
52889;DHT22;41413;52.770;6.892;2023-08-07T02:17:01;15.20;99.90
52889;DHT22;41413;52.770;6.892;2023-08-07T02:19:28;15.20;99.90
52889;DHT22;41413;52.770;6.892;2023-08-07T02:21:54;15.20;99.90
52889;DHT22;41413;52.770;6.892;2023-08-07T02:24:21;15.20;99.90
52889;DHT22;41413;52.770;6.892;2023-08-07T02:26:48;15.30;99.90
52889;DHT22;41413;52.770;6.892;2023-08-07T02:29:15;15.30;99.90
52889;DHT22;41413;52.770;6.892;2023-08-07T02:31:41;15.30;99.90
52889;DHT22;41413;52.770;6.892;2023-08-07T02:34:08;15.20;99.90
52889;DHT22;41413;52.770;6.892;2023-08-07T02:36:35;15.20;99.90
52889;DHT22;41413;52.770;6.892;2023-08-07T02:39:02;15.30;99.90
52889;DHT22;41413;52.770;6.892;2023-08-07T02:41:29;15.20;99.90
52889;DHT22;41413;52.770;6.892;2023-08-07T02:43:55;15.20;99.90
52889;DHT22;41413;52.770;6.892;2023-08-07T02:46:22;15.30;99.90
52889;DHT22;41413;52.770;6.892;2023-08-07T02:48:49;15.20;99.90
52889;DHT22;41413;52.770;6.892;2023-08-07T02:51:16;15.20;99.90
52889;DHT22;41413;52.770;6.892;2023-08-07T02:53:42;15.20;99.90
52889;DHT22;41413;52.770;6.892;2023-08-07T02:56:09;15.20;99.90
52889;DHT22;41413;52.770;6.892;2023-08-07T02:58:37;15.20;99.90
52889;DHT22;41413;52.770;6.892;2023-08-07T03:01:04;15.20;99.90
52889;DHT22;41413;52.770;6.892;2023-08-07T03:03:34;15.20;99.90
52889;DHT22;41413;52.770;6.892;2023-08-07T03:06:01;15.20;99.90
52889;DHT22;41413;52.770;6.892;2023-08-07T03:08:27;15.20;99.90
52889;DHT22;41413;52.770;6.892;2023-08-07T03:10:56;15.30;99.90
52889;DHT22;41413;52.770;6.892;2023-08-07T03:13:24;15.20;99.90
52889;DHT22;41413;52.770;6.892;2023-08-07T03:16:01;15.20;99.90
52889;DHT22;41413;52.770;6.892;2023-08-07T03:18:28;15.20;99.90
52889;DHT22;41413;52.770;6.892;2023-08-07T03:20:56;15.10;99.90
52889;DHT22;41413;52.770;6.892;2023-08-07T03:23:24;15.10;99.90
52889;DHT22;41413;52.770;6.892;2023-08-07T03:26:01;15.00;99.90
52889;DHT22;41413;52.770;6.892;2023-08-07T03:28:30;15.10;99.90
52889;DHT22;41413;52.770;6.892;2023-08-07T03:30:57;15.00;99.90
52889;DHT22;41413;52.770;6.892;2023-08-07T03:33:23;15.00;99.90
52889;DHT22;41413;52.770;6.892;2023-08-07T03:35:50;15.00;99.90
52889;DHT22;41413;52.770;6.892;2023-08-07T03:38:18;15.00;99.90
52889;DHT22;41413;52.770;6.892;2023-08-07T03:40:44;15.00;99.90
52889;DHT22;41413;52.770;6.892;2023-08-07T03:43:11;15.00;99.90
52889;DHT22;41413;52.770;6.892;2023-08-07T03:45:38;14.90;99.90
52889;DHT22;41413;52.770;6.892;2023-08-07T03:48:06;14.80;99.90
52889;DHT22;41413;52.770;6.892;2023-08-07T03:50:35;14.90;99.90
52889;DHT22;41413;52.770;6.892;2023-08-07T03:53:06;14.80;99.90
52889;DHT22;41413;52.770;6.892;2023-08-07T03:55:34;14.80;99.90
52889;DHT22;41413;52.770;6.892;2023-08-07T03:58:02;14.80;99.90
52889;DHT22;41413;52.770;6.892;2023-08-07T04:00:29;14.80;99.90
52889;DHT22;41413;52.770;6.892;2023-08-07T04:02:56;14.80;99.90
52889;DHT22;41413;52.770;6.892;2023-08-07T04:05:23;14.80;99.90
52889;DHT22;41413;52.770;6.892;2023-08-07T04:07:50;14.90;99.90
52889;DHT22;41413;52.770;6.892;2023-08-07T04:10:17;14.90;99.90
52889;DHT22;41413;52.770;6.892;2023-08-07T04:12:44;14.80;99.90
52889;DHT22;41413;52.770;6.892;2023-08-07T04:15:10;14.80;99.90
52889;DHT22;41413;52.770;6.892;2023-08-07T04:17:37;14.80;99.90
52889;DHT22;41413;52.770;6.892;2023-08-07T04:20:04;14.80;99.90
52889;DHT22;41413;52.770;6.892;2023-08-07T04:22:31;14.80;99.90
52889;DHT22;41413;52.770;6.892;2023-08-07T04:24:58;14.70;99.90
52889;DHT22;41413;52.770;6.892;2023-08-07T04:27:26;14.80;99.90
52889;DHT22;41413;52.770;6.892;2023-08-07T04:29:53;14.80;99.90
52889;DHT22;41413;52.770;6.892;2023-08-07T04:32:20;14.80;99.90
52889;DHT22;41413;52.770;6.892;2023-08-07T04:34:47;14.70;99.90
52889;DHT22;41413;52.770;6.892;2023-08-07T04:37:13;14.80;99.90
52889;DHT22;41413;52.770;6.892;2023-08-07T04:39:40;14.80;99.90
52889;DHT22;41413;52.770;6.892;2023-08-07T04:42:07;14.80;99.90
52889;DHT22;41413;52.770;6.892;2023-08-07T04:44:34;14.80;99.90
52889;DHT22;41413;52.770;6.892;2023-08-07T04:47:01;14.90;99.90
52889;DHT22;41413;52.770;6.892;2023-08-07T04:49:27;14.90;99.90
52889;DHT22;41413;52.770;6.892;2023-08-07T04:51:54;15.00;99.90
52889;DHT22;41413;52.770;6.892;2023-08-07T04:54:21;15.00;99.90
52889;DHT22;41413;52.770;6.892;2023-08-07T04:56:48;15.00;99.90
52889;DHT22;41413;52.770;6.892;2023-08-07T04:59:14;15.00;99.90
52889;DHT22;41413;52.770;6.892;2023-08-07T05:01:41;15.00;99.90
52889;DHT22;41413;52.770;6.892;2023-08-07T05:04:08;15.00;99.90
52889;DHT22;41413;52.770;6.892;2023-08-07T05:06:35;15.00;99.90
52889;DHT22;41413;52.770;6.892;2023-08-07T05:09:02;15.00;99.90
52889;DHT22;41413;52.770;6.892;2023-08-07T05:11:29;15.00;99.90
52889;DHT22;41413;52.770;6.892;2023-08-07T05:13:56;15.00;99.90
52889;DHT22;41413;52.770;6.892;2023-08-07T05:16:23;15.00;99.90
52889;DHT22;41413;52.770;6.892;2023-08-07T05:18:50;15.00;99.90
52889;DHT22;41413;52.770;6.892;2023-08-07T05:21:17;15.00;99.90
52889;DHT22;41413;52.770;6.892;2023-08-07T05:23:44;15.00;99.90
52889;DHT22;41413;52.770;6.892;2023-08-07T05:26:11;15.00;99.90
52889;DHT22;41413;52.770;6.892;2023-08-07T05:28:37;15.00;99.90
52889;DHT22;41413;52.770;6.892;2023-08-07T05:31:04;15.00;99.90
52889;DHT22;41413;52.770;6.892;2023-08-07T05:33:31;15.00;99.90
52889;DHT22;41413;52.770;6.892;2023-08-07T05:35:58;15.10;99.90
52889;DHT22;41413;52.770;6.892;2023-08-07T05:38:24;15.20;99.90
52889;DHT22;41413;52.770;6.892;2023-08-07T05:40:51;15.20;99.90
52889;DHT22;41413;52.770;6.892;2023-08-07T05:43:18;15.20;99.90
52889;DHT22;41413;52.770;6.892;2023-08-07T05:45:45;15.20;99.90
52889;DHT22;41413;52.770;6.892;2023-08-07T05:48:12;15.30;99.90
52889;DHT22;41413;52.770;6.892;2023-08-07T05:50:39;15.30;99.90
52889;DHT22;41413;52.770;6.892;2023-08-07T05:53:06;15.40;99.90
52889;DHT22;41413;52.770;6.892;2023-08-07T05:55:33;15.30;99.90
52889;DHT22;41413;52.770;6.892;2023-08-07T05:58:00;15.30;99.90
52889;DHT22;41413;52.770;6.892;2023-08-07T06:00:27;15.30;99.90
52889;DHT22;41413;52.770;6.892;2023-08-07T06:02:55;15.30;99.90
52889;DHT22;41413;52.770;6.892;2023-08-07T06:05:22;15.30;99.90
52889;DHT22;41413;52.770;6.892;2023-08-07T06:07:48;15.30;99.90
52889;DHT22;41413;52.770;6.892;2023-08-07T06:10:15;15.20;99.90
52889;DHT22;41413;52.770;6.892;2023-08-07T06:12:42;15.20;99.90
52889;DHT22;41413;52.770;6.892;2023-08-07T06:15:09;15.30;99.90
52889;DHT22;41413;52.770;6.892;2023-08-07T06:17:36;15.30;99.90
52889;DHT22;41413;52.770;6.892;2023-08-07T06:20:03;15.30;99.90
52889;DHT22;41413;52.770;6.892;2023-08-07T06:22:31;15.20;99.90
52889;DHT22;41413;52.770;6.892;2023-08-07T06:24:59;15.20;99.90
52889;DHT22;41413;52.770;6.892;2023-08-07T06:27:26;15.20;99.90
52889;DHT22;41413;52.770;6.892;2023-08-07T06:29:52;15.20;99.90
52889;DHT22;41413;52.770;6.892;2023-08-07T06:32:19;15.20;99.90
52889;DHT22;41413;52.770;6.892;2023-08-07T06:34:46;15.30;99.90
52889;DHT22;41413;52.770;6.892;2023-08-07T06:37:13;15.30;99.90
52889;DHT22;41413;52.770;6.892;2023-08-07T06:39:40;15.30;99.90
52889;DHT22;41413;52.770;6.892;2023-08-07T06:42:07;15.40;99.90
52889;DHT22;41413;52.770;6.892;2023-08-07T06:44:34;15.50;99.90
52889;DHT22;41413;52.770;6.892;2023-08-07T06:47:00;15.50;99.90
52889;DHT22;41413;52.770;6.892;2023-08-07T06:49:27;15.60;99.90
52889;DHT22;41413;52.770;6.892;2023-08-07T06:51:54;15.60;99.90
52889;DHT22;41413;52.770;6.892;2023-08-07T06:54:21;15.70;99.90
52889;DHT22;41413;52.770;6.892;2023-08-07T06:56:48;15.80;99.90
52889;DHT22;41413;52.770;6.892;2023-08-07T06:59:15;15.90;99.90
52889;DHT22;41413;52.770;6.892;2023-08-07T07:01:42;16.00;99.90
52889;DHT22;41413;52.770;6.892;2023-08-07T07:04:08;16.10;99.90
52889;DHT22;41413;52.770;6.892;2023-08-07T07:06:37;16.20;99.90
52889;DHT22;41413;52.770;6.892;2023-08-07T07:09:03;16.20;99.90
52889;DHT22;41413;52.770;6.892;2023-08-07T07:11:31;16.20;99.90
52889;DHT22;41413;52.770;6.892;2023-08-07T07:13:58;16.10;99.90
52889;DHT22;41413;52.770;6.892;2023-08-07T07:16:24;16.00;99.90
52889;DHT22;41413;52.770;6.892;2023-08-07T07:18:54;16.10;99.90
52889;DHT22;41413;52.770;6.892;2023-08-07T07:21:22;16.20;99.90
52889;DHT22;41413;52.770;6.892;2023-08-07T07:23:49;16.40;99.90
52889;DHT22;41413;52.770;6.892;2023-08-07T07:26:16;16.50;99.90
52889;DHT22;41413;52.770;6.892;2023-08-07T07:28:43;16.70;99.90
52889;DHT22;41413;52.770;6.892;2023-08-07T07:31:10;16.80;99.90
52889;DHT22;41413;52.770;6.892;2023-08-07T07:33:38;16.70;99.90
52889;DHT22;41413;52.770;6.892;2023-08-07T07:36:07;16.60;99.90
52889;DHT22;41413;52.770;6.892;2023-08-07T07:38:34;16.60;99.90
52889;DHT22;41413;52.770;6.892;2023-08-07T07:41:00;16.50;99.90
52889;DHT22;41413;52.770;6.892;2023-08-07T07:43:27;16.40;99.90
52889;DHT22;41413;52.770;6.892;2023-08-07T07:45:54;16.40;99.90
52889;DHT22;41413;52.770;6.892;2023-08-07T07:48:21;16.60;99.90
52889;DHT22;41413;52.770;6.892;2023-08-07T07:50:47;16.50;99.90
52889;DHT22;41413;52.770;6.892;2023-08-07T07:53:14;16.60;99.90
52889;DHT22;41413;52.770;6.892;2023-08-07T07:55:41;16.90;99.90
52889;DHT22;41413;52.770;6.892;2023-08-07T07:58:12;17.00;99.90
52889;DHT22;41413;52.770;6.892;2023-08-07T08:00:39;17.10;99.90
52889;DHT22;41413;52.770;6.892;2023-08-07T08:03:06;17.30;99.90
52889;DHT22;41413;52.770;6.892;2023-08-07T08:05:33;17.40;99.90
52889;DHT22;41413;52.770;6.892;2023-08-07T08:08:01;17.50;99.90
52889;DHT22;41413;52.770;6.892;2023-08-07T08:10:28;17.60;99.90
52889;DHT22;41413;52.770;6.892;2023-08-07T08:12:55;17.60;99.90
52889;DHT22;41413;52.770;6.892;2023-08-07T08:15:22;17.60;99.90
52889;DHT22;41413;52.770;6.892;2023-08-07T08:17:49;17.60;99.90
52889;DHT22;41413;52.770;6.892;2023-08-07T08:20:16;17.70;99.90
52889;DHT22;41413;52.770;6.892;2023-08-07T08:22:45;17.80;99.90
52889;DHT22;41413;52.770;6.892;2023-08-07T08:25:12;17.90;99.90
52889;DHT22;41413;52.770;6.892;2023-08-07T08:27:40;17.90;99.90
52889;DHT22;41413;52.770;6.892;2023-08-07T08:30:07;18.00;99.90
52889;DHT22;41413;52.770;6.892;2023-08-07T08:32:35;18.10;99.90
52889;DHT22;41413;52.770;6.892;2023-08-07T08:35:02;18.20;99.90
52889;DHT22;41413;52.770;6.892;2023-08-07T08:37:29;18.20;99.90
52889;DHT22;41413;52.770;6.892;2023-08-07T08:39:56;18.30;99.90
52889;DHT22;41413;52.770;6.892;2023-08-07T08:42:22;18.50;99.90
52889;DHT22;41413;52.770;6.892;2023-08-07T08:44:53;18.70;99.90
52889;DHT22;41413;52.770;6.892;2023-08-07T08:47:22;18.90;99.90
52889;DHT22;41413;52.770;6.892;2023-08-07T08:50:06;18.70;99.90
52889;DHT22;41413;52.770;6.892;2023-08-07T08:52:34;18.80;99.90
52889;DHT22;41413;52.770;6.892;2023-08-07T08:55:02;18.90;99.90
52889;DHT22;41413;52.770;6.892;2023-08-07T08:57:29;18.50;99.90
52889;DHT22;41413;52.770;6.892;2023-08-07T08:59:57;18.20;99.90
52889;DHT22;41413;52.770;6.892;2023-08-07T09:02:25;17.60;99.90
52889;DHT22;41413;52.770;6.892;2023-08-07T09:04:52;17.20;99.90
52889;DHT22;41413;52.770;6.892;2023-08-07T09:07:19;16.80;99.90
52889;DHT22;41413;52.770;6.892;2023-08-07T09:09:48;16.50;99.90
52889;DHT22;41413;52.770;6.892;2023-08-07T09:12:20;16.50;99.90
52889;DHT22;41413;52.770;6.892;2023-08-07T09:14:52;16.60;99.90
52889;DHT22;41413;52.770;6.892;2023-08-07T09:17:24;16.80;99.90
52889;DHT22;41413;52.770;6.892;2023-08-07T09:19:52;17.40;99.90
52889;DHT22;41413;52.770;6.892;2023-08-07T09:22:20;18.20;99.90
52889;DHT22;41413;52.770;6.892;2023-08-07T09:24:46;19.10;99.90
52889;DHT22;41413;52.770;6.892;2023-08-07T09:27:13;19.70;99.90
52889;DHT22;41413;52.770;6.892;2023-08-07T09:29:40;20.60;99.90
52889;DHT22;41413;52.770;6.892;2023-08-07T09:32:08;21.50;99.90
52889;DHT22;41413;52.770;6.892;2023-08-07T09:34:35;21.90;99.90
52889;DHT22;41413;52.770;6.892;2023-08-07T09:37:02;22.10;99.90
52889;DHT22;41413;52.770;6.892;2023-08-07T09:39:30;22.40;99.90
52889;DHT22;41413;52.770;6.892;2023-08-07T09:41:56;22.30;99.90
52889;DHT22;41413;52.770;6.892;2023-08-07T09:44:23;22.60;99.90
52889;DHT22;41413;52.770;6.892;2023-08-07T09:46:50;23.30;99.90
52889;DHT22;41413;52.770;6.892;2023-08-07T09:49:18;23.50;99.90
52889;DHT22;41413;52.770;6.892;2023-08-07T09:51:47;23.50;99.90
52889;DHT22;41413;52.770;6.892;2023-08-07T09:54:14;23.40;99.90
52889;DHT22;41413;52.770;6.892;2023-08-07T09:56:41;23.60;99.90
52889;DHT22;41413;52.770;6.892;2023-08-07T09:59:08;23.30;99.90
52889;DHT22;41413;52.770;6.892;2023-08-07T10:01:38;23.30;99.90
52889;DHT22;41413;52.770;6.892;2023-08-07T10:04:09;23.40;99.90
52889;DHT22;41413;52.770;6.892;2023-08-07T10:06:43;23.80;99.90
52889;DHT22;41413;52.770;6.892;2023-08-07T10:09:11;23.90;95.80
52889;DHT22;41413;52.770;6.892;2023-08-07T10:11:38;24.40;97.00
52889;DHT22;41413;52.770;6.892;2023-08-07T10:14:06;24.70;95.90
52889;DHT22;41413;52.770;6.892;2023-08-07T10:16:35;24.30;97.40
52889;DHT22;41413;52.770;6.892;2023-08-07T10:19:06;24.40;96.60
52889;DHT22;41413;52.770;6.892;2023-08-07T10:21:36;24.40;96.70
52889;DHT22;41413;52.770;6.892;2023-08-07T10:24:05;24.10;96.40
52889;DHT22;41413;52.770;6.892;2023-08-07T10:26:35;23.40;95.40
52889;DHT22;41413;52.770;6.892;2023-08-07T10:29:07;22.70;94.90
52889;DHT22;41413;52.770;6.892;2023-08-07T10:31:36;22.00;95.80
52889;DHT22;41413;52.770;6.892;2023-08-07T10:34:04;21.40;98.00
52889;DHT22;41413;52.770;6.892;2023-08-07T10:36:36;21.10;99.00
52889;DHT22;41413;52.770;6.892;2023-08-07T10:39:08;20.80;99.20
52889;DHT22;41413;52.770;6.892;2023-08-07T10:41:42;20.70;99.70
52889;DHT22;41413;52.770;6.892;2023-08-07T10:44:24;21.10;99.20
52889;DHT22;41413;52.770;6.892;2023-08-07T10:46:55;22.00;98.20
52889;DHT22;41413;52.770;6.892;2023-08-07T10:52:01;22.10;96.60
52889;DHT22;41413;52.770;6.892;2023-08-07T10:54:28;21.80;98.30
52889;DHT22;41413;52.770;6.892;2023-08-07T10:56:55;21.50;96.60
52889;DHT22;41413;52.770;6.892;2023-08-07T10:59:22;21.30;97.40
52889;DHT22;41413;52.770;6.892;2023-08-07T11:01:54;20.90;97.50
52889;DHT22;41413;52.770;6.892;2023-08-07T11:04:22;20.80;98.00
52889;DHT22;41413;52.770;6.892;2023-08-07T11:06:51;20.60;98.50
52889;DHT22;41413;52.770;6.892;2023-08-07T11:09:18;20.40;98.80
52889;DHT22;41413;52.770;6.892;2023-08-07T11:11:47;20.30;99.10
52889;DHT22;41413;52.770;6.892;2023-08-07T11:14:16;20.40;99.50
52889;DHT22;41413;52.770;6.892;2023-08-07T11:16:44;20.60;99.60
52889;DHT22;41413;52.770;6.892;2023-08-07T11:19:13;20.40;99.90
52889;DHT22;41413;52.770;6.892;2023-08-07T11:21:41;20.30;99.60
52889;DHT22;41413;52.770;6.892;2023-08-07T11:24:13;20.10;99.20
52889;DHT22;41413;52.770;6.892;2023-08-07T11:26:42;19.70;99.60
52889;DHT22;41413;52.770;6.892;2023-08-07T11:29:10;19.60;99.90
52889;DHT22;41413;52.770;6.892;2023-08-07T11:31:37;19.30;99.90
52889;DHT22;41413;52.770;6.892;2023-08-07T11:34:03;19.30;99.90
52889;DHT22;41413;52.770;6.892;2023-08-07T11:36:30;19.00;99.90
52889;DHT22;41413;52.770;6.892;2023-08-07T11:38:59;18.90;99.90
52889;DHT22;41413;52.770;6.892;2023-08-07T11:41:25;19.10;99.90
52889;DHT22;41413;52.770;6.892;2023-08-07T11:43:52;19.70;99.90
52889;DHT22;41413;52.770;6.892;2023-08-07T11:46:19;20.30;99.90
52889;DHT22;41413;52.770;6.892;2023-08-07T11:48:47;20.60;99.90
52889;DHT22;41413;52.770;6.892;2023-08-07T11:51:14;20.60;99.90
52889;DHT22;41413;52.770;6.892;2023-08-07T11:53:41;20.70;99.90
52889;DHT22;41413;52.770;6.892;2023-08-07T11:56:13;20.60;99.90
52889;DHT22;41413;52.770;6.892;2023-08-07T11:58:47;20.50;98.70
52889;DHT22;41413;52.770;6.892;2023-08-07T12:01:18;20.40;97.20
52889;DHT22;41413;52.770;6.892;2023-08-07T12:04:08;20.80;98.00
52889;DHT22;41413;52.770;6.892;2023-08-07T12:06:36;21.00;98.10
52889;DHT22;41413;52.770;6.892;2023-08-07T12:09:06;21.40;98.10
52889;DHT22;41413;52.770;6.892;2023-08-07T12:11:39;21.40;97.70
52889;DHT22;41413;52.770;6.892;2023-08-07T12:14:06;21.30;96.70
52889;DHT22;41413;52.770;6.892;2023-08-07T12:16:34;21.20;97.20
52889;DHT22;41413;52.770;6.892;2023-08-07T12:19:01;21.10;96.60
52889;DHT22;41413;52.770;6.892;2023-08-07T12:21:30;21.20;96.80
52889;DHT22;41413;52.770;6.892;2023-08-07T12:23:59;21.20;96.50
52889;DHT22;41413;52.770;6.892;2023-08-07T12:26:26;21.00;97.00
52889;DHT22;41413;52.770;6.892;2023-08-07T12:28:53;21.30;97.40
52889;DHT22;41413;52.770;6.892;2023-08-07T12:31:20;21.10;97.20
52889;DHT22;41413;52.770;6.892;2023-08-07T12:33:47;21.20;97.30
52889;DHT22;41413;52.770;6.892;2023-08-07T12:36:15;21.20;96.90
52889;DHT22;41413;52.770;6.892;2023-08-07T12:38:44;21.30;97.40
52889;DHT22;41413;52.770;6.892;2023-08-07T12:41:11;21.30;97.60
52889;DHT22;41413;52.770;6.892;2023-08-07T12:43:41;21.40;97.70
52889;DHT22;41413;52.770;6.892;2023-08-07T12:46:08;21.30;97.70
52889;DHT22;41413;52.770;6.892;2023-08-07T12:48:38;21.10;97.10
52889;DHT22;41413;52.770;6.892;2023-08-07T12:51:05;20.80;97.40
52889;DHT22;41413;52.770;6.892;2023-08-07T12:53:32;20.60;97.90
52889;DHT22;41413;52.770;6.892;2023-08-07T12:55:59;20.20;99.00
52889;DHT22;41413;52.770;6.892;2023-08-07T12:58:26;20.20;99.40
52889;DHT22;41413;52.770;6.892;2023-08-07T13:00:56;20.00;99.90
52889;DHT22;41413;52.770;6.892;2023-08-07T13:03:23;19.90;99.90
52889;DHT22;41413;52.770;6.892;2023-08-07T13:05:49;19.90;99.90
52889;DHT22;41413;52.770;6.892;2023-08-07T13:08:16;19.80;99.90
52889;DHT22;41413;52.770;6.892;2023-08-07T13:10:43;19.90;99.90
52889;DHT22;41413;52.770;6.892;2023-08-07T13:13:11;19.80;99.90
52889;DHT22;41413;52.770;6.892;2023-08-07T13:15:38;19.90;99.90
52889;DHT22;41413;52.770;6.892;2023-08-07T13:18:04;19.90;99.90
52889;DHT22;41413;52.770;6.892;2023-08-07T13:20:31;20.10;99.90
52889;DHT22;41413;52.770;6.892;2023-08-07T13:23:01;20.00;99.90
52889;DHT22;41413;52.770;6.892;2023-08-07T13:25:28;19.80;99.90
52889;DHT22;41413;52.770;6.892;2023-08-07T13:27:55;19.80;99.90
52889;DHT22;41413;52.770;6.892;2023-08-07T13:30:22;19.90;99.90
52889;DHT22;41413;52.770;6.892;2023-08-07T13:32:48;19.70;99.90
52889;DHT22;41413;52.770;6.892;2023-08-07T13:35:15;19.60;99.90
52889;DHT22;41413;52.770;6.892;2023-08-07T13:37:43;19.90;99.90
52889;DHT22;41413;52.770;6.892;2023-08-07T13:40:10;19.90;99.90
52889;DHT22;41413;52.770;6.892;2023-08-07T13:42:38;19.90;99.90
52889;DHT22;41413;52.770;6.892;2023-08-07T13:45:06;20.10;99.90
52889;DHT22;41413;52.770;6.892;2023-08-07T13:47:33;20.10;99.90
52889;DHT22;41413;52.770;6.892;2023-08-07T13:50:01;20.10;99.90
52889;DHT22;41413;52.770;6.892;2023-08-07T13:52:28;20.10;99.90
52889;DHT22;41413;52.770;6.892;2023-08-07T13:54:57;19.60;99.90
52889;DHT22;41413;52.770;6.892;2023-08-07T13:57:24;19.60;99.90
52889;DHT22;41413;52.770;6.892;2023-08-07T13:59:51;19.60;99.90
52889;DHT22;41413;52.770;6.892;2023-08-07T14:02:17;19.30;99.90
52889;DHT22;41413;52.770;6.892;2023-08-07T14:04:44;19.40;99.90
52889;DHT22;41413;52.770;6.892;2023-08-07T14:07:12;19.60;99.90
52889;DHT22;41413;52.770;6.892;2023-08-07T14:09:39;19.80;99.90
52889;DHT22;41413;52.770;6.892;2023-08-07T14:12:06;19.70;99.90
52889;DHT22;41413;52.770;6.892;2023-08-07T14:14:33;20.10;99.90
52889;DHT22;41413;52.770;6.892;2023-08-07T14:17:00;20.10;99.90
52889;DHT22;41413;52.770;6.892;2023-08-07T14:19:28;19.90;99.90
52889;DHT22;41413;52.770;6.892;2023-08-07T14:21:55;20.10;99.90
52889;DHT22;41413;52.770;6.892;2023-08-07T14:24:22;20.30;99.90
52889;DHT22;41413;52.770;6.892;2023-08-07T14:26:49;20.50;99.90
52889;DHT22;41413;52.770;6.892;2023-08-07T14:29:16;20.40;99.90
52889;DHT22;41413;52.770;6.892;2023-08-07T14:31:43;20.40;99.90
52889;DHT22;41413;52.770;6.892;2023-08-07T14:34:09;20.00;99.90
52889;DHT22;41413;52.770;6.892;2023-08-07T14:36:36;19.80;99.90
52889;DHT22;41413;52.770;6.892;2023-08-07T14:39:03;19.70;99.90
52889;DHT22;41413;52.770;6.892;2023-08-07T14:41:30;19.40;99.90
52889;DHT22;41413;52.770;6.892;2023-08-07T14:43:57;19.30;99.90
52889;DHT22;41413;52.770;6.892;2023-08-07T14:46:24;19.20;99.90
52889;DHT22;41413;52.770;6.892;2023-08-07T14:48:51;19.00;99.90
52889;DHT22;41413;52.770;6.892;2023-08-07T14:51:18;18.80;99.90
52889;DHT22;41413;52.770;6.892;2023-08-07T14:53:44;18.80;99.90
52889;DHT22;41413;52.770;6.892;2023-08-07T14:56:11;18.70;99.90
52889;DHT22;41413;52.770;6.892;2023-08-07T14:58:38;18.90;99.90
52889;DHT22;41413;52.770;6.892;2023-08-07T15:01:05;18.60;99.90
52889;DHT22;41413;52.770;6.892;2023-08-07T15:03:32;18.50;99.90
52889;DHT22;41413;52.770;6.892;2023-08-07T15:05:59;18.50;99.90
52889;DHT22;41413;52.770;6.892;2023-08-07T15:08:25;18.60;99.90
52889;DHT22;41413;52.770;6.892;2023-08-07T15:10:52;18.60;99.90
52889;DHT22;41413;52.770;6.892;2023-08-07T15:13:22;18.80;99.90
52889;DHT22;41413;52.770;6.892;2023-08-07T15:15:49;18.80;99.90
52889;DHT22;41413;52.770;6.892;2023-08-07T15:18:16;18.80;99.90
52889;DHT22;41413;52.770;6.892;2023-08-07T15:20:43;18.70;99.90
52889;DHT22;41413;52.770;6.892;2023-08-07T15:23:09;18.80;99.90
52889;DHT22;41413;52.770;6.892;2023-08-07T15:25:37;18.80;99.90
52889;DHT22;41413;52.770;6.892;2023-08-07T15:28:06;18.70;99.90
52889;DHT22;41413;52.770;6.892;2023-08-07T15:30:33;18.80;99.90
52889;DHT22;41413;52.770;6.892;2023-08-07T15:32:59;18.80;99.90
52889;DHT22;41413;52.770;6.892;2023-08-07T15:35:29;18.90;99.90
52889;DHT22;41413;52.770;6.892;2023-08-07T15:37:56;18.90;99.90
52889;DHT22;41413;52.770;6.892;2023-08-07T15:40:23;18.80;99.90
52889;DHT22;41413;52.770;6.892;2023-08-07T15:42:50;18.70;99.90
52889;DHT22;41413;52.770;6.892;2023-08-07T15:45:16;18.60;99.90